sensor_id;sensor_type;location;lat;lon;timestamp;pressure;altitude;pressure_sealevel;temperature;humidity
46782;BME280;32541;46.298;11.506;2023-01-26T00:01:42;89391.97;;;-3.90;84.62
46782;BME280;32541;46.298;11.506;2023-01-26T00:04:09;89384.13;;;-3.88;84.12
46782;BME280;32541;46.298;11.506;2023-01-26T00:06:34;89385.63;;;-3.92;84.50
46782;BME280;32541;46.298;11.506;2023-01-26T00:08:59;89382.69;;;-3.95;85.54
46782;BME280;32541;46.298;11.506;2023-01-26T00:11:26;89379.03;;;-3.92;85.29
46782;BME280;32541;46.298;11.506;2023-01-26T00:13:54;89376.88;;;-4.04;84.36
46782;BME280;32541;46.298;11.506;2023-01-26T00:16:20;89372.03;;;-4.17;85.57
46782;BME280;32541;46.298;11.506;2023-01-26T00:18:45;89378.13;;;-4.11;84.72
46782;BME280;32541;46.298;11.506;2023-01-26T00:21:13;89376.19;;;-4.10;84.74
46782;BME280;32541;46.298;11.506;2023-01-26T00:23:38;89371.25;;;-4.06;85.00
46782;BME280;32541;46.298;11.506;2023-01-26T00:26:08;89365.44;;;-4.10;84.42
46782;BME280;32541;46.298;11.506;2023-01-26T00:28:34;89361.34;;;-4.28;85.02
46782;BME280;32541;46.298;11.506;2023-01-26T00:31:07;89359.38;;;-4.33;84.99
46782;BME280;32541;46.298;11.506;2023-01-26T00:33:32;89368.13;;;-4.10;85.52
46782;BME280;32541;46.298;11.506;2023-01-26T00:35:58;89364.00;;;-4.17;85.48
46782;BME280;32541;46.298;11.506;2023-01-26T00:38:24;89367.19;;;-4.35;84.88
46782;BME280;32541;46.298;11.506;2023-01-26T00:40:49;89373.28;;;-4.29;85.32
46782;BME280;32541;46.298;11.506;2023-01-26T00:43:14;89362.31;;;-4.25;84.90
46782;BME280;32541;46.298;11.506;2023-01-26T00:45:40;89361.09;;;-4.35;84.67
46782;BME280;32541;46.298;11.506;2023-01-26T00:48:06;89358.94;;;-4.42;85.62
46782;BME280;32541;46.298;11.506;2023-01-26T00:50:31;89349.19;;;-4.45;85.65
46782;BME280;32541;46.298;11.506;2023-01-26T00:52:57;89351.34;;;-4.38;85.04
46782;BME280;32541;46.298;11.506;2023-01-26T00:55:23;89349.91;;;-4.39;84.91
46782;BME280;32541;46.298;11.506;2023-01-26T00:57:53;89349.91;;;-4.39;84.58
46782;BME280;32541;46.298;11.506;2023-01-26T01:00:19;89346.25;;;-4.47;84.75
46782;BME280;32541;46.298;11.506;2023-01-26T01:02:44;89357.69;;;-4.41;84.35
46782;BME280;32541;46.298;11.506;2023-01-26T01:05:10;89338.72;;;-4.49;84.40
46782;BME280;32541;46.298;11.506;2023-01-26T01:07:36;89346.78;;;-4.55;85.43
46782;BME280;32541;46.298;11.506;2023-01-26T01:10:02;89343.59;;;-4.59;85.76
46782;BME280;32541;46.298;11.506;2023-01-26T01:12:27;89356.03;;;-4.56;85.14
46782;BME280;32541;46.298;11.506;2023-01-26T01:14:52;89351.16;;;-4.63;85.27
46782;BME280;32541;46.298;11.506;2023-01-26T01:17:18;89352.41;;;-4.64;85.79
46782;BME280;32541;46.298;11.506;2023-01-26T01:19:43;89343.38;;;-4.66;85.59
46782;BME280;32541;46.298;11.506;2023-01-26T01:22:08;89346.06;;;-4.66;84.96
46782;BME280;32541;46.298;11.506;2023-01-26T01:24:34;89349.22;;;-4.68;85.68
46782;BME280;32541;46.298;11.506;2023-01-26T01:27:01;89344.84;;;-4.76;86.02
46782;BME280;32541;46.298;11.506;2023-01-26T01:29:26;89341.69;;;-4.69;85.57
46782;BME280;32541;46.298;11.506;2023-01-26T01:31:51;89340.22;;;-4.81;86.63
46782;BME280;32541;46.298;11.506;2023-01-26T01:34:17;89343.16;;;-4.79;86.82
46782;BME280;32541;46.298;11.506;2023-01-26T01:36:42;89343.88;;;-4.79;87.13
46782;BME280;32541;46.298;11.506;2023-01-26T01:39:07;89334.63;;;-4.89;86.77
46782;BME280;32541;46.298;11.506;2023-01-26T01:41:33;89336.56;;;-4.73;86.38
46782;BME280;32541;46.298;11.506;2023-01-26T01:44:12;89331.66;;;-4.74;85.62
46782;BME280;32541;46.298;11.506;2023-01-26T01:46:38;89322.44;;;-4.79;85.76
46782;BME280;32541;46.298;11.506;2023-01-26T01:54:32;89332.66;;;-4.83;85.55
46782;BME280;32541;46.298;11.506;2023-01-26T01:57:01;89320.97;;;-4.85;85.58
46782;BME280;32541;46.298;11.506;2023-01-26T01:59:30;89320.47;;;-4.84;84.87
46782;BME280;32541;46.298;11.506;2023-01-26T02:01:56;89321.22;;;-5.00;84.65
46782;BME280;32541;46.298;11.506;2023-01-26T02:04:23;89314.16;;;-4.92;85.60
46782;BME280;32541;46.298;11.506;2023-01-26T02:06:51;89321.44;;;-4.87;85.77
46782;BME280;32541;46.298;11.506;2023-01-26T02:09:21;89311.44;;;-4.81;85.30
46782;BME280;32541;46.298;11.506;2023-01-26T02:12:07;89315.63;;;-4.91;85.21
46782;BME280;32541;46.298;11.506;2023-01-26T02:14:35;89312.22;;;-4.97;85.11
46782;BME280;32541;46.298;11.506;2023-01-26T02:17:00;89310.00;;;-5.04;85.83
46782;BME280;32541;46.298;11.506;2023-01-26T02:22:15;89297.09;;;-5.22;84.77
46782;BME280;32541;46.298;11.506;2023-01-26T02:24:46;89297.34;;;-5.09;85.28
46782;BME280;32541;46.298;11.506;2023-01-26T02:27:11;89301.75;;;-5.12;84.77
46782;BME280;32541;46.298;11.506;2023-01-26T02:29:37;89292.72;;;-5.09;85.14
46782;BME280;32541;46.298;11.506;2023-01-26T02:32:02;89292.00;;;-5.09;85.32
46782;BME280;32541;46.298;11.506;2023-01-26T02:34:27;89283.25;;;-5.21;84.63
46782;BME280;32541;46.298;11.506;2023-01-26T02:36:59;89281.28;;;-5.15;85.19
46782;BME280;32541;46.298;11.506;2023-01-26T02:39:48;89282.25;;;-5.12;84.18
46782;BME280;32541;46.298;11.506;2023-01-26T02:42:17;89278.63;;;-5.20;84.96
46782;BME280;32541;46.298;11.506;2023-01-26T02:45:00;89273.50;;;-5.18;84.42
46782;BME280;32541;46.298;11.506;2023-01-26T02:47:26;89275.22;;;-5.26;84.86
46782;BME280;32541;46.298;11.506;2023-01-26T02:49:51;89269.59;;;-5.34;85.80
46782;BME280;32541;46.298;11.506;2023-01-26T02:52:22;89260.34;;;-5.33;85.27
46782;BME280;32541;46.298;11.506;2023-01-26T02:54:50;89268.41;;;-5.38;86.18
46782;BME280;32541;46.298;11.506;2023-01-26T02:57:34;89270.81;;;-5.40;86.06
46782;BME280;32541;46.298;11.506;2023-01-26T03:00:01;89269.13;;;-5.43;85.91
46782;BME280;32541;46.298;11.506;2023-01-26T03:02:27;89264.47;;;-5.43;86.40
46782;BME280;32541;46.298;11.506;2023-01-26T03:04:53;89261.56;;;-5.45;86.01
46782;BME280;32541;46.298;11.506;2023-01-26T03:07:18;89252.56;;;-5.47;85.39
46782;BME280;32541;46.298;11.506;2023-01-26T03:09:43;89255.72;;;-5.54;84.47
46782;BME280;32541;46.298;11.506;2023-01-26T03:12:09;89240.16;;;-5.50;85.10
46782;BME280;32541;46.298;11.506;2023-01-26T03:14:34;89237.94;;;-5.57;85.93
46782;BME280;32541;46.298;11.506;2023-01-26T03:17:00;89231.63;;;-5.49;84.73
46782;BME280;32541;46.298;11.506;2023-01-26T03:19:25;89229.19;;;-5.47;85.39
46782;BME280;32541;46.298;11.506;2023-01-26T03:22:09;89236.72;;;-5.45;85.09
46782;BME280;32541;46.298;11.506;2023-01-26T03:25:08;89225.03;;;-5.42;85.86
46782;BME280;32541;46.298;11.506;2023-01-26T03:27:52;89224.78;;;-5.39;85.06
46782;BME280;32541;46.298;11.506;2023-01-26T03:30:18;89221.88;;;-5.46;85.53
46782;BME280;32541;46.298;11.506;2023-01-26T03:32:43;89224.31;;;-5.59;85.77
46782;BME280;32541;46.298;11.506;2023-01-26T03:35:09;89219.22;;;-5.63;85.53
46782;BME280;32541;46.298;11.506;2023-01-26T03:37:42;89219.22;;;-5.69;86.17
46782;BME280;32541;46.298;11.506;2023-01-26T03:40:10;89217.75;;;-5.70;86.25
46782;BME280;32541;46.298;11.506;2023-01-26T03:43:08;89215.56;;;-5.66;86.43
46782;BME280;32541;46.298;11.506;2023-01-26T03:45:52;89216.53;;;-5.63;85.24
46782;BME280;32541;46.298;11.506;2023-01-26T03:48:37;89213.84;;;-5.57;85.88
46782;BME280;32541;46.298;11.506;2023-01-26T03:51:21;89221.88;;;-5.52;86.65
46782;BME280;32541;46.298;11.506;2023-01-26T03:54:05;89208.50;;;-5.69;86.99
46782;BME280;32541;46.298;11.506;2023-01-26T03:56:49;89210.94;;;-5.71;87.10
46782;BME280;32541;46.298;11.506;2023-01-26T03:59:14;89210.44;;;-5.75;86.56
46782;BME280;32541;46.298;11.506;2023-01-26T04:01:45;89197.06;;;-5.69;85.86
46782;BME280;32541;46.298;11.506;2023-01-26T04:04:30;89201.69;;;-5.70;83.81
46782;BME280;32541;46.298;11.506;2023-01-26T04:07:14;89206.81;;;-5.77;85.14
46782;BME280;32541;46.298;11.506;2023-01-26T04:09:58;89196.34;;;-5.81;85.41
46782;BME280;32541;46.298;11.506;2023-01-26T04:12:24;89194.88;;;-5.76;84.86
46782;BME280;32541;46.298;11.506;2023-01-26T04:14:50;89202.44;;;-5.86;84.72
46782;BME280;32541;46.298;11.506;2023-01-26T04:17:34;89189.53;;;-5.87;84.98
46782;BME280;32541;46.298;11.506;2023-01-26T04:20:18;89191.75;;;-5.97;84.91
46782;BME280;32541;46.298;11.506;2023-01-26T04:23:02;89187.84;;;-5.90;85.59
46782;BME280;32541;46.298;11.506;2023-01-26T04:25:27;89182.25;;;-5.87;84.94
46782;BME280;32541;46.298;11.506;2023-01-26T04:27:53;89169.56;;;-5.81;84.52
46782;BME280;32541;46.298;11.506;2023-01-26T04:30:18;89169.06;;;-5.85;84.19
46782;BME280;32541;46.298;11.506;2023-01-26T04:32:44;89168.63;;;-5.94;84.30
46782;BME280;32541;46.298;11.506;2023-01-26T04:35:12;89171.78;;;-6.01;85.40
46782;BME280;32541;46.298;11.506;2023-01-26T04:37:38;89170.81;;;-5.98;85.99
46782;BME280;32541;46.298;11.506;2023-01-26T04:40:05;89162.06;;;-5.99;85.35
46782;BME280;32541;46.298;11.506;2023-01-26T04:42:30;89158.66;;;-5.88;84.68
46782;BME280;32541;46.298;11.506;2023-01-26T04:44:56;89163.72;;;-5.85;84.83
46782;BME280;32541;46.298;11.506;2023-01-26T04:47:21;89164.25;;;-6.03;84.34
46782;BME280;32541;46.298;11.506;2023-01-26T04:49:47;89162.78;;;-5.93;84.86
46782;BME280;32541;46.298;11.506;2023-01-26T04:52:12;89167.16;;;-6.06;85.17
46782;BME280;32541;46.298;11.506;2023-01-26T04:54:38;89165.19;;;-6.17;85.42
46782;BME280;32541;46.298;11.506;2023-01-26T04:57:04;89159.63;;;-6.25;85.25
46782;BME280;32541;46.298;11.506;2023-01-26T04:59:30;89157.19;;;-6.34;84.83
46782;BME280;32541;46.298;11.506;2023-01-26T05:01:55;89162.75;;;-6.32;84.14
46782;BME280;32541;46.298;11.506;2023-01-26T05:04:21;89150.84;;;-6.31;84.16
46782;BME280;32541;46.298;11.506;2023-01-26T05:06:46;89151.09;;;-6.29;84.21
46782;BME280;32541;46.298;11.506;2023-01-26T05:09:12;89153.75;;;-6.34;84.53
46782;BME280;32541;46.298;11.506;2023-01-26T05:11:37;89150.84;;;-6.36;84.31
46782;BME280;32541;46.298;11.506;2023-01-26T05:14:02;89159.63;;;-6.30;84.74
46782;BME280;32541;46.298;11.506;2023-01-26T05:16:28;89157.19;;;-6.28;83.87
46782;BME280;32541;46.298;11.506;2023-01-26T05:18:53;89159.63;;;-6.19;84.94
46782;BME280;32541;46.298;11.506;2023-01-26T05:21:19;89165.47;;;-6.21;84.32
46782;BME280;32541;46.298;11.506;2023-01-26T05:23:44;89159.38;;;-6.27;84.55
46782;BME280;32541;46.298;11.506;2023-01-26T05:26:10;89157.19;;;-6.28;83.62
46782;BME280;32541;46.298;11.506;2023-01-26T05:28:35;89156.44;;;-6.29;84.47
46782;BME280;32541;46.298;11.506;2023-01-26T05:31:01;89158.88;;;-6.25;83.23
46782;BME280;32541;46.298;11.506;2023-01-26T05:33:26;89155.94;;;-6.38;83.43
46782;BME280;32541;46.298;11.506;2023-01-26T05:35:52;89167.88;;;-6.23;82.72
46782;BME280;32541;46.298;11.506;2023-01-26T05:38:18;89157.91;;;-6.22;83.88
46782;BME280;32541;46.298;11.506;2023-01-26T05:40:44;89155.47;;;-6.31;84.29
46782;BME280;32541;46.298;11.506;2023-01-26T05:43:11;89152.06;;;-6.37;84.18
46782;BME280;32541;46.298;11.506;2023-01-26T05:45:37;89152.78;;;-6.37;83.70
46782;BME280;32541;46.298;11.506;2023-01-26T05:48:03;89152.56;;;-6.39;83.63
46782;BME280;32541;46.298;11.506;2023-01-26T05:50:28;89150.84;;;-6.36;81.87
46782;BME280;32541;46.298;11.506;2023-01-26T05:52:53;89145.75;;;-6.45;82.99
46782;BME280;32541;46.298;11.506;2023-01-26T05:55:19;89150.34;;;-6.46;83.78
46782;BME280;32541;46.298;11.506;2023-01-26T05:57:44;89158.59;;;-6.44;83.65
46782;BME280;32541;46.298;11.506;2023-01-26T06:00:10;89160.31;;;-6.41;84.23
46782;BME280;32541;46.298;11.506;2023-01-26T06:02:36;89166.16;;;-6.37;83.53
46782;BME280;32541;46.298;11.506;2023-01-26T06:05:02;89168.09;;;-6.48;83.30
46782;BME280;32541;46.298;11.506;2023-01-26T06:07:28;89166.63;;;-6.49;84.80
46782;BME280;32541;46.298;11.506;2023-01-26T06:09:53;89171.22;;;-6.55;84.79
46782;BME280;32541;46.298;11.506;2023-01-26T06:12:20;89173.38;;;-6.70;84.57
46782;BME280;32541;46.298;11.506;2023-01-26T06:14:46;89165.13;;;-6.72;83.91
46782;BME280;32541;46.298;11.506;2023-01-26T06:17:13;89169.28;;;-6.66;84.13
46782;BME280;32541;46.298;11.506;2023-01-26T06:19:39;89168.53;;;-6.72;83.93
46782;BME280;32541;46.298;11.506;2023-01-26T06:22:11;89169.28;;;-6.71;84.66
46782;BME280;32541;46.298;11.506;2023-01-26T06:24:37;89171.94;;;-6.71;84.33
46782;BME280;32541;46.298;11.506;2023-01-26T06:27:05;89163.22;;;-6.44;83.21
46782;BME280;32541;46.298;11.506;2023-01-26T06:29:31;89159.84;;;-6.45;83.93
46782;BME280;32541;46.298;11.506;2023-01-26T06:31:56;89156.44;;;-6.40;83.16
46782;BME280;32541;46.298;11.506;2023-01-26T06:34:22;89159.09;;;-6.45;82.92
46782;BME280;32541;46.298;11.506;2023-01-26T06:36:47;89162.53;;;-6.39;82.55
46782;BME280;32541;46.298;11.506;2023-01-26T06:39:13;89152.28;;;-6.35;82.51
46782;BME280;32541;46.298;11.506;2023-01-26T06:41:39;89157.16;;;-6.45;82.31
46782;BME280;32541;46.298;11.506;2023-01-26T06:44:07;89144.50;;;-6.55;81.98
46782;BME280;32541;46.298;11.506;2023-01-26T06:46:32;89156.66;;;-6.49;82.78
46782;BME280;32541;46.298;11.506;2023-01-26T06:49:00;89147.66;;;-6.57;82.43
46782;BME280;32541;46.298;11.506;2023-01-26T06:51:43;89152.28;;;-6.57;82.63
46782;BME280;32541;46.298;11.506;2023-01-26T06:54:10;89148.41;;;-6.51;82.66
46782;BME280;32541;46.298;11.506;2023-01-26T06:56:36;89142.56;;;-6.55;81.52
46782;BME280;32541;46.298;11.506;2023-01-26T06:59:02;89144.25;;;-6.52;82.28
46782;BME280;32541;46.298;11.506;2023-01-26T07:01:32;89146.19;;;-6.52;82.04
46782;BME280;32541;46.298;11.506;2023-01-26T07:03:59;89143.75;;;-6.61;82.00
46782;BME280;32541;46.298;11.506;2023-01-26T07:06:24;89145.00;;;-6.62;81.90
46782;BME280;32541;46.298;11.506;2023-01-26T07:08:49;89140.63;;;-6.43;81.95
46782;BME280;32541;46.298;11.506;2023-01-26T07:11:15;89140.91;;;-6.30;81.29
46782;BME280;32541;46.298;11.506;2023-01-26T07:13:41;89142.84;;;-6.36;81.12
46782;BME280;32541;46.298;11.506;2023-01-26T07:16:09;89141.34;;;-6.48;81.88
46782;BME280;32541;46.298;11.506;2023-01-26T07:18:36;89140.63;;;-6.54;82.21
46782;BME280;32541;46.298;11.506;2023-01-26T07:21:20;89139.16;;;-6.55;82.12
46782;BME280;32541;46.298;11.506;2023-01-26T07:23:47;89127.00;;;-6.56;81.66
46782;BME280;32541;46.298;11.506;2023-01-26T07:26:13;89127.47;;;-6.58;81.61
46782;BME280;32541;46.298;11.506;2023-01-26T07:28:39;89136.47;;;-6.55;81.25
46782;BME280;32541;46.298;11.506;2023-01-26T07:31:05;89130.91;;;-6.52;82.14
46782;BME280;32541;46.298;11.506;2023-01-26T07:33:32;89134.06;;;-6.42;81.13
46782;BME280;32541;46.298;11.506;2023-01-26T07:35:58;89125.31;;;-6.43;80.94
46782;BME280;32541;46.298;11.506;2023-01-26T07:38:24;89125.56;;;-6.35;81.44
46782;BME280;32541;46.298;11.506;2023-01-26T07:40:51;89124.59;;;-6.43;81.39
46782;BME280;32541;46.298;11.506;2023-01-26T07:43:17;89128.72;;;-6.31;80.83
46782;BME280;32541;46.298;11.506;2023-01-26T07:45:46;89129.69;;;-5.90;79.93
46782;BME280;32541;46.298;11.506;2023-01-26T07:48:12;89119.41;;;-4.43;77.09
46782;BME280;32541;46.298;11.506;2023-01-26T07:50:38;89126.97;;;-2.61;70.07
46782;BME280;32541;46.298;11.506;2023-01-26T07:53:03;89109.66;;;-0.41;62.79
46782;BME280;32541;46.298;11.506;2023-01-26T07:55:29;89111.56;;;1.30;58.95
46782;BME280;32541;46.298;11.506;2023-01-26T07:57:54;89111.72;;;3.30;53.72
46782;BME280;32541;46.298;11.506;2023-01-26T08:00:20;89099.34;;;5.36;49.72
46782;BME280;32541;46.298;11.506;2023-01-26T08:02:49;89103.94;;;6.97;44.01
46782;BME280;32541;46.298;11.506;2023-01-26T08:05:14;89092.97;;;7.70;41.49
46782;BME280;32541;46.298;11.506;2023-01-26T08:07:39;89088.59;;;8.22;39.86
46782;BME280;32541;46.298;11.506;2023-01-26T08:10:05;89086.22;;;8.96;39.09
46782;BME280;32541;46.298;11.506;2023-01-26T08:12:33;89080.63;;;9.34;37.40
46782;BME280;32541;46.298;11.506;2023-01-26T08:14:59;89078.50;;;8.73;37.10
46782;BME280;32541;46.298;11.506;2023-01-26T08:17:25;89082.34;;;8.79;37.80
46782;BME280;32541;46.298;11.506;2023-01-26T08:19:50;89080.50;;;8.72;36.76
46782;BME280;32541;46.298;11.506;2023-01-26T08:22:15;89078.91;;;8.12;37.88
46782;BME280;32541;46.298;11.506;2023-01-26T08:24:41;89085.91;;;7.21;39.55
46782;BME280;32541;46.298;11.506;2023-01-26T08:27:06;89085.00;;;7.45;39.66
46782;BME280;32541;46.298;11.506;2023-01-26T08:29:31;89087.19;;;8.31;37.82
46782;BME280;32541;46.298;11.506;2023-01-26T08:31:57;89090.63;;;6.84;38.85
46782;BME280;32541;46.298;11.506;2023-01-26T08:34:22;89083.88;;;5.97;40.55
46782;BME280;32541;46.298;11.506;2023-01-26T08:36:47;89093.50;;;6.15;40.66
46782;BME280;32541;46.298;11.506;2023-01-26T08:39:13;89099.91;;;6.98;40.57
46782;BME280;32541;46.298;11.506;2023-01-26T08:41:39;89093.91;;;7.36;40.63
46782;BME280;32541;46.298;11.506;2023-01-26T08:44:05;89093.13;;;7.72;40.16
46782;BME280;32541;46.298;11.506;2023-01-26T08:46:30;89094.81;;;8.32;36.97
46782;BME280;32541;46.298;11.506;2023-01-26T08:48:56;89082.81;;;8.66;38.33
46782;BME280;32541;46.298;11.506;2023-01-26T08:51:21;89081.50;;;8.77;38.41
46782;BME280;32541;46.298;11.506;2023-01-26T08:53:47;89074.28;;;8.81;38.23
46782;BME280;32541;46.298;11.506;2023-01-26T08:56:12;89075.25;;;8.96;38.65
46782;BME280;32541;46.298;11.506;2023-01-26T08:58:38;89068.31;;;8.94;37.82
46782;BME280;32541;46.298;11.506;2023-01-26T09:01:10;89074.03;;;8.39;38.14
46782;BME280;32541;46.298;11.506;2023-01-26T09:03:35;89058.72;;;8.74;38.55
46782;BME280;32541;46.298;11.506;2023-01-26T09:06:03;89063.81;;;8.49;38.46
46782;BME280;32541;46.298;11.506;2023-01-26T09:08:29;89059.16;;;8.04;38.91
46782;BME280;32541;46.298;11.506;2023-01-26T09:10:55;89059.47;;;7.98;39.65
46782;BME280;32541;46.298;11.506;2023-01-26T09:13:20;89056.56;;;8.06;37.18
46782;BME280;32541;46.298;11.506;2023-01-26T09:15:46;89047.00;;;7.03;38.18
46782;BME280;32541;46.298;11.506;2023-01-26T09:18:11;89051.63;;;5.27;41.66
46782;BME280;32541;46.298;11.506;2023-01-26T09:20:37;89055.44;;;4.82;43.80
46782;BME280;32541;46.298;11.506;2023-01-26T09:23:02;89061.97;;;4.22;45.54
46782;BME280;32541;46.298;11.506;2023-01-26T09:25:28;89058.97;;;4.68;45.20
46782;BME280;32541;46.298;11.506;2023-01-26T09:27:53;89056.50;;;4.87;45.05
46782;BME280;32541;46.298;11.506;2023-01-26T09:30:19;89057.41;;;5.31;44.48
46782;BME280;32541;46.298;11.506;2023-01-26T09:32:44;89061.19;;;5.11;44.11
46782;BME280;32541;46.298;11.506;2023-01-26T09:35:10;89059.75;;;4.28;46.03
46782;BME280;32541;46.298;11.506;2023-01-26T09:37:37;89063.50;;;4.40;45.52
46782;BME280;32541;46.298;11.506;2023-01-26T09:40:03;89062.78;;;4.40;44.74
46782;BME280;32541;46.298;11.506;2023-01-26T09:42:48;89055.97;;;4.24;44.32
46782;BME280;32541;46.298;11.506;2023-01-26T09:45:32;89049.38;;;4.91;43.37
46782;BME280;32541;46.298;11.506;2023-01-26T09:50:37;89046.91;;;5.45;42.76
46782;BME280;32541;46.298;11.506;2023-01-26T09:53:15;89043.81;;;5.66;42.13
46782;BME280;32541;46.298;11.506;2023-01-26T09:55:44;89044.25;;;5.96;42.25
46782;BME280;32541;46.298;11.506;2023-01-26T09:58:32;89040.63;;;6.38;41.22
46782;BME280;32541;46.298;11.506;2023-01-26T10:01:00;89036.16;;;5.47;41.93
46782;BME280;32541;46.298;11.506;2023-01-26T10:03:38;89039.66;;;4.81;44.00
46782;BME280;32541;46.298;11.506;2023-01-26T10:09:07;89032.00;;;4.55;44.71
46782;BME280;32541;46.298;11.506;2023-01-26T10:11:43;89022.38;;;4.29;44.77
46782;BME280;32541;46.298;11.506;2023-01-26T10:14:18;89020.09;;;4.75;44.88
46782;BME280;32541;46.298;11.506;2023-01-26T10:16:47;89018.59;;;5.23;44.10
46782;BME280;32541;46.298;11.506;2023-01-26T10:19:41;89020.41;;;4.79;44.94
46782;BME280;32541;46.298;11.506;2023-01-26T10:22:23;89027.72;;;3.02;49.69
46782;BME280;32541;46.298;11.506;2023-01-26T10:24:52;89022.84;;;2.93;49.89
46782;BME280;32541;46.298;11.506;2023-01-26T10:27:19;89008.50;;;3.77;48.45
46782;BME280;32541;46.298;11.506;2023-01-26T10:29:44;89006.41;;;4.58;45.41
46782;BME280;32541;46.298;11.506;2023-01-26T10:32:14;88998.69;;;4.46;45.99
46782;BME280;32541;46.298;11.506;2023-01-26T10:34:40;88998.19;;;4.90;45.23
46782;BME280;32541;46.298;11.506;2023-01-26T10:37:19;89000.53;;;3.09;49.20
46782;BME280;32541;46.298;11.506;2023-01-26T10:40:03;88991.56;;;3.94;47.67
46782;BME280;32541;46.298;11.506;2023-01-26T10:42:33;88983.97;;;4.49;46.21
46782;BME280;32541;46.298;11.506;2023-01-26T10:45:00;88976.50;;;4.25;46.30
46782;BME280;32541;46.298;11.506;2023-01-26T10:47:27;88972.25;;;3.75;47.46
46782;BME280;32541;46.298;11.506;2023-01-26T10:50:22;88976.06;;;3.79;47.31
46782;BME280;32541;46.298;11.506;2023-01-26T10:52:57;88977.41;;;2.93;48.67
46782;BME280;32541;46.298;11.506;2023-01-26T10:55:23;88963.03;;;4.35;45.72
46782;BME280;32541;46.298;11.506;2023-01-26T10:57:49;88958.22;;;4.92;44.18
46782;BME280;32541;46.298;11.506;2023-01-26T11:02:52;88954.44;;;4.14;46.17
46782;BME280;32541;46.298;11.506;2023-01-26T11:05:27;88952.44;;;3.50;47.06
46782;BME280;32541;46.298;11.506;2023-01-26T11:07:54;88949.75;;;3.42;46.40
46782;BME280;32541;46.298;11.506;2023-01-26T11:15:35;88937.25;;;3.79;45.35
46782;BME280;32541;46.298;11.506;2023-01-26T11:18:18;88934.28;;;4.17;44.93
46782;BME280;32541;46.298;11.506;2023-01-26T11:21:05;88929.13;;;4.53;43.26
46782;BME280;32541;46.298;11.506;2023-01-26T11:24:00;88928.03;;;4.31;43.16
46782;BME280;32541;46.298;11.506;2023-01-26T11:32:39;88909.94;;;4.26;44.12
46782;BME280;32541;46.298;11.506;2023-01-26T11:35:29;88900.84;;;4.07;44.03
46782;BME280;32541;46.298;11.506;2023-01-26T11:38:40;88885.94;;;4.32;42.59
46782;BME280;32541;46.298;11.506;2023-01-26T11:41:11;88889.88;;;4.98;41.89
46782;BME280;32541;46.298;11.506;2023-01-26T11:46:17;88878.25;;;4.97;41.11
46782;BME280;32541;46.298;11.506;2023-01-26T11:52:08;88869.19;;;5.83;40.13
46782;BME280;32541;46.298;11.506;2023-01-26T11:57:45;88863.41;;;5.25;41.02
46782;BME280;32541;46.298;11.506;2023-01-26T12:02:36;88848.34;;;3.89;42.76
46782;BME280;32541;46.298;11.506;2023-01-26T12:05:12;88843.13;;;4.08;42.64
46782;BME280;32541;46.298;11.506;2023-01-26T12:08:34;88834.38;;;4.34;41.67
46782;BME280;32541;46.298;11.506;2023-01-26T12:11:12;88825.50;;;5.73;39.76
46782;BME280;32541;46.298;11.506;2023-01-26T12:19:47;88828.03;;;3.41;43.63
46782;BME280;32541;46.298;11.506;2023-01-26T12:22:57;88826.50;;;3.22;44.72
46782;BME280;32541;46.298;11.506;2023-01-26T12:25:34;88822.13;;;3.59;44.05
46782;BME280;32541;46.298;11.506;2023-01-26T12:33:22;88812.28;;;3.64;44.01
46782;BME280;32541;46.298;11.506;2023-01-26T12:38:50;88802.97;;;3.50;44.42
46782;BME280;32541;46.298;11.506;2023-01-26T12:44:36;88799.22;;;4.12;42.68
46782;BME280;32541;46.298;11.506;2023-01-26T12:47:26;88797.72;;;4.70;41.68
46782;BME280;32541;46.298;11.506;2023-01-26T12:55:33;88776.19;;;5.25;41.94
46782;BME280;32541;46.298;11.506;2023-01-26T12:58:04;88780.56;;;4.94;42.43
46782;BME280;32541;46.298;11.506;2023-01-26T13:00:35;88771.00;;;4.59;43.02
46782;BME280;32541;46.298;11.506;2023-01-26T13:03:21;88765.16;;;4.62;43.09
46782;BME280;32541;46.298;11.506;2023-01-26T13:05:55;88773.84;;;4.09;43.78
46782;BME280;32541;46.298;11.506;2023-01-26T13:10:57;88764.41;;;4.10;43.66
46782;BME280;32541;46.298;11.506;2023-01-26T13:21:40;88750.53;;;3.57;42.66
46782;BME280;32541;46.298;11.506;2023-01-26T13:26:47;88749.50;;;3.77;44.60
46782;BME280;32541;46.298;11.506;2023-01-26T13:29:33;88748.50;;;3.65;43.84
46782;BME280;32541;46.298;11.506;2023-01-26T13:34:35;88753.53;;;3.68;44.48
46782;BME280;32541;46.298;11.506;2023-01-26T13:37:31;88747.50;;;3.53;44.52
46782;BME280;32541;46.298;11.506;2023-01-26T13:39:59;88746.97;;;3.71;43.25
46782;BME280;32541;46.298;11.506;2023-01-26T13:42:48;88748.56;;;3.99;44.73
46782;BME280;32541;46.298;11.506;2023-01-26T13:45:25;88750.00;;;4.00;43.38
46782;BME280;32541;46.298;11.506;2023-01-26T13:47:55;88742.28;;;4.48;42.65
46782;BME280;32541;46.298;11.506;2023-01-26T13:52:48;88740.19;;;5.00;41.68
46782;BME280;32541;46.298;11.506;2023-01-26T13:55:24;88742.03;;;5.24;41.95
46782;BME280;32541;46.298;11.506;2023-01-26T13:58:16;88737.16;;;5.59;40.76
46782;BME280;32541;46.298;11.506;2023-01-26T14:01:00;88731.78;;;5.78;41.14
46782;BME280;32541;46.298;11.506;2023-01-26T14:03:26;88737.50;;;6.09;40.44
46782;BME280;32541;46.298;11.506;2023-01-26T14:05:54;88737.84;;;6.32;40.19
46782;BME280;32541;46.298;11.506;2023-01-26T14:08:20;88738.00;;;6.63;39.12
46782;BME280;32541;46.298;11.506;2023-01-26T14:10:47;88734.69;;;6.55;39.81
46782;BME280;32541;46.298;11.506;2023-01-26T14:13:19;88728.22;;;6.79;39.88
46782;BME280;32541;46.298;11.506;2023-01-26T14:15:55;88728.66;;;6.76;39.04
46782;BME280;32541;46.298;11.506;2023-01-26T14:18:20;88730.38;;;7.00;39.50
46782;BME280;32541;46.298;11.506;2023-01-26T14:20:49;88731.06;;;7.10;38.46
46782;BME280;32541;46.298;11.506;2023-01-26T14:23:21;88733.66;;;7.17;37.86
46782;BME280;32541;46.298;11.506;2023-01-26T14:25:57;88731.47;;;7.16;38.24
46782;BME280;32541;46.298;11.506;2023-01-26T14:28:27;88728.44;;;7.31;38.53
46782;BME280;32541;46.298;11.506;2023-01-26T14:31:02;88724.72;;;7.26;38.80